sensor_id;sensor_type;location;lat;lon;timestamp;temperature;humidity
67899;DHT22;54699;51.796;10.956;2023-03-14T00:01:31;17.60;60.00
67899;DHT22;54699;51.796;10.956;2023-03-14T00:03:58;17.60;60.00
67899;DHT22;54699;51.796;10.956;2023-03-14T00:06:24;17.60;60.10
67899;DHT22;54699;51.796;10.956;2023-03-14T00:08:52;17.60;60.10
67899;DHT22;54699;51.796;10.956;2023-03-14T00:11:20;17.60;60.00
67899;DHT22;54699;51.796;10.956;2023-03-14T00:13:48;17.60;60.00
67899;DHT22;54699;51.796;10.956;2023-03-14T00:16:16;17.60;60.00
67899;DHT22;54699;51.796;10.956;2023-03-14T00:18:44;17.60;60.00
67899;DHT22;54699;51.796;10.956;2023-03-14T00:21:11;17.60;60.00
67899;DHT22;54699;51.796;10.956;2023-03-14T00:23:40;17.60;60.00
67899;DHT22;54699;51.796;10.956;2023-03-14T00:26:09;17.50;59.90
67899;DHT22;54699;51.796;10.956;2023-03-14T00:28:37;17.50;60.00
67899;DHT22;54699;51.796;10.956;2023-03-14T00:31:04;17.50;60.00
67899;DHT22;54699;51.796;10.956;2023-03-14T00:33:33;17.50;59.90
67899;DHT22;54699;51.796;10.956;2023-03-14T00:36:02;17.60;60.00
67899;DHT22;54699;51.796;10.956;2023-03-14T00:38:31;17.50;59.90
67899;DHT22;54699;51.796;10.956;2023-03-14T00:40:59;17.50;59.90
67899;DHT22;54699;51.796;10.956;2023-03-14T00:43:29;17.60;60.00
67899;DHT22;54699;51.796;10.956;2023-03-14T00:45:57;17.50;60.00
67899;DHT22;54699;51.796;10.956;2023-03-14T00:48:24;17.50;59.80
67899;DHT22;54699;51.796;10.956;2023-03-14T00:50:51;17.50;59.90
67899;DHT22;54699;51.796;10.956;2023-03-14T00:53:19;17.60;59.90
67899;DHT22;54699;51.796;10.956;2023-03-14T00:55:46;17.50;59.80
67899;DHT22;54699;51.796;10.956;2023-03-14T00:58:14;17.50;59.80
67899;DHT22;54699;51.796;10.956;2023-03-14T01:00:42;17.60;59.80
67899;DHT22;54699;51.796;10.956;2023-03-14T01:03:10;17.50;59.80
67899;DHT22;54699;51.796;10.956;2023-03-14T01:05:37;17.60;59.80
67899;DHT22;54699;51.796;10.956;2023-03-14T01:08:06;17.60;59.80
67899;DHT22;54699;51.796;10.956;2023-03-14T01:10:37;17.50;59.80
67899;DHT22;54699;51.796;10.956;2023-03-14T01:13:04;17.50;59.80
67899;DHT22;54699;51.796;10.956;2023-03-14T01:15:31;17.50;59.80
67899;DHT22;54699;51.796;10.956;2023-03-14T01:17:58;17.60;60.70
67899;DHT22;54699;51.796;10.956;2023-03-14T01:20:25;17.50;59.70
67899;DHT22;54699;51.796;10.956;2023-03-14T01:22:52;17.50;59.80
67899;DHT22;54699;51.796;10.956;2023-03-14T01:25:19;17.50;59.60
67899;DHT22;54699;51.796;10.956;2023-03-14T01:27:47;17.50;59.70
67899;DHT22;54699;51.796;10.956;2023-03-14T01:30:14;17.50;59.80
67899;DHT22;54699;51.796;10.956;2023-03-14T01:32:41;17.50;59.60
67899;DHT22;54699;51.796;10.956;2023-03-14T01:35:08;17.50;59.60
67899;DHT22;54699;51.796;10.956;2023-03-14T01:37:35;17.50;59.60
67899;DHT22;54699;51.796;10.956;2023-03-14T01:40:02;17.50;59.60
67899;DHT22;54699;51.796;10.956;2023-03-14T01:42:31;17.50;59.60
67899;DHT22;54699;51.796;10.956;2023-03-14T01:45:00;17.50;59.70
67899;DHT22;54699;51.796;10.956;2023-03-14T01:47:27;17.50;59.80
67899;DHT22;54699;51.796;10.956;2023-03-14T01:49:56;17.50;59.60
67899;DHT22;54699;51.796;10.956;2023-03-14T01:52:27;17.50;59.60
67899;DHT22;54699;51.796;10.956;2023-03-14T01:54:59;17.50;59.60
67899;DHT22;54699;51.796;10.956;2023-03-14T01:57:32;17.50;59.50
67899;DHT22;54699;51.796;10.956;2023-03-14T02:00:04;17.50;59.60
67899;DHT22;54699;51.796;10.956;2023-03-14T02:02:38;17.50;59.50
67899;DHT22;54699;51.796;10.956;2023-03-14T02:05:08;17.50;59.50
67899;DHT22;54699;51.796;10.956;2023-03-14T02:07:36;17.50;59.60
67899;DHT22;54699;51.796;10.956;2023-03-14T02:10:08;17.50;59.50
67899;DHT22;54699;51.796;10.956;2023-03-14T02:12:36;17.50;59.50
67899;DHT22;54699;51.796;10.956;2023-03-14T02:15:05;17.50;59.60
67899;DHT22;54699;51.796;10.956;2023-03-14T02:17:33;17.50;59.50
67899;DHT22;54699;51.796;10.956;2023-03-14T02:20:13;17.50;59.60
67899;DHT22;54699;51.796;10.956;2023-03-14T02:22:49;17.50;59.50
67899;DHT22;54699;51.796;10.956;2023-03-14T02:25:17;17.40;59.50
67899;DHT22;54699;51.796;10.956;2023-03-14T02:27:53;17.50;59.50
67899;DHT22;54699;51.796;10.956;2023-03-14T02:30:21;17.50;59.60
67899;DHT22;54699;51.796;10.956;2023-03-14T02:32:50;17.50;59.50
67899;DHT22;54699;51.796;10.956;2023-03-14T02:35:21;17.50;59.50
67899;DHT22;54699;51.796;10.956;2023-03-14T02:37:51;17.50;59.50
67899;DHT22;54699;51.796;10.956;2023-03-14T02:40:21;17.50;59.50
67899;DHT22;54699;51.796;10.956;2023-03-14T02:42:48;17.50;59.40
67899;DHT22;54699;51.796;10.956;2023-03-14T02:48:05;17.50;59.50
67899;DHT22;54699;51.796;10.956;2023-03-14T02:50:35;17.40;59.30
67899;DHT22;54699;51.796;10.956;2023-03-14T02:53:01;17.40;59.40
67899;DHT22;54699;51.796;10.956;2023-03-14T02:55:28;17.40;59.40
67899;DHT22;54699;51.796;10.956;2023-03-14T02:57:55;17.40;59.40
67899;DHT22;54699;51.796;10.956;2023-03-14T03:00:22;17.40;59.30
67899;DHT22;54699;51.796;10.956;2023-03-14T03:02:50;17.40;59.30
67899;DHT22;54699;51.796;10.956;2023-03-14T03:05:17;17.40;59.30
67899;DHT22;54699;51.796;10.956;2023-03-14T03:07:44;17.40;59.30
67899;DHT22;54699;51.796;10.956;2023-03-14T03:10:11;17.40;60.10
67899;DHT22;54699;51.796;10.956;2023-03-14T03:12:38;17.40;59.20
67899;DHT22;54699;51.796;10.956;2023-03-14T03:15:05;17.40;59.30
67899;DHT22;54699;51.796;10.956;2023-03-14T03:17:33;17.40;59.20
67899;DHT22;54699;51.796;10.956;2023-03-14T03:20:01;17.40;59.20
67899;DHT22;54699;51.796;10.956;2023-03-14T03:22:28;17.40;59.30
67899;DHT22;54699;51.796;10.956;2023-03-14T03:24:55;17.40;59.30
67899;DHT22;54699;51.796;10.956;2023-03-14T03:27:22;17.40;59.30
67899;DHT22;54699;51.796;10.956;2023-03-14T03:29:49;17.40;59.30
67899;DHT22;54699;51.796;10.956;2023-03-14T03:32:16;17.40;59.30
67899;DHT22;54699;51.796;10.956;2023-03-14T03:34:43;17.40;59.20
67899;DHT22;54699;51.796;10.956;2023-03-14T03:37:11;17.40;59.20
67899;DHT22;54699;51.796;10.956;2023-03-14T03:39:38;17.40;59.20
67899;DHT22;54699;51.796;10.956;2023-03-14T03:42:05;17.40;60.00
67899;DHT22;54699;51.796;10.956;2023-03-14T03:44:31;17.40;59.20
67899;DHT22;54699;51.796;10.956;2023-03-14T03:46:58;17.40;59.20
67899;DHT22;54699;51.796;10.956;2023-03-14T03:49:28;17.40;59.10
67899;DHT22;54699;51.796;10.956;2023-03-14T03:51:55;17.30;59.10
67899;DHT22;54699;51.796;10.956;2023-03-14T03:54:23;17.30;59.10
67899;DHT22;54699;51.796;10.956;2023-03-14T03:56:50;17.40;59.20
67899;DHT22;54699;51.796;10.956;2023-03-14T03:59:17;17.30;59.10
67899;DHT22;54699;51.796;10.956;2023-03-14T04:01:44;17.30;59.10
67899;DHT22;54699;51.796;10.956;2023-03-14T04:04:11;17.40;59.20
67899;DHT22;54699;51.796;10.956;2023-03-14T04:06:38;17.40;59.10
67899;DHT22;54699;51.796;10.956;2023-03-14T04:09:07;17.30;58.90
67899;DHT22;54699;51.796;10.956;2023-03-14T04:11:35;17.30;59.00
67899;DHT22;54699;51.796;10.956;2023-03-14T04:14:02;17.30;59.00
67899;DHT22;54699;51.796;10.956;2023-03-14T04:16:29;17.40;59.10
67899;DHT22;54699;51.796;10.956;2023-03-14T04:18:56;17.30;59.00
67899;DHT22;54699;51.796;10.956;2023-03-14T04:21:24;17.40;59.10
67899;DHT22;54699;51.796;10.956;2023-03-14T04:23:50;17.40;58.90
67899;DHT22;54699;51.796;10.956;2023-03-14T04:26:17;17.30;59.00
67899;DHT22;54699;51.796;10.956;2023-03-14T04:28:45;17.30;58.90
67899;DHT22;54699;51.796;10.956;2023-03-14T04:31:13;17.40;59.10
67899;DHT22;54699;51.796;10.956;2023-03-14T04:33:41;17.40;59.00
67899;DHT22;54699;51.796;10.956;2023-03-14T04:36:08;17.30;59.00
67899;DHT22;54699;51.796;10.956;2023-03-14T04:38:35;17.30;59.10
67899;DHT22;54699;51.796;10.956;2023-03-14T04:41:02;17.40;59.90
67899;DHT22;54699;51.796;10.956;2023-03-14T04:43:30;17.30;59.00
67899;DHT22;54699;51.796;10.956;2023-03-14T04:45:58;17.30;59.00
67899;DHT22;54699;51.796;10.956;2023-03-14T04:48:25;17.30;58.90
67899;DHT22;54699;51.796;10.956;2023-03-14T04:50:52;17.30;59.00
67899;DHT22;54699;51.796;10.956;2023-03-14T04:53:19;17.30;58.90
67899;DHT22;54699;51.796;10.956;2023-03-14T04:55:49;17.30;58.80
67899;DHT22;54699;51.796;10.956;2023-03-14T04:58:17;17.30;59.00
67899;DHT22;54699;51.796;10.956;2023-03-14T05:00:44;17.30;59.00
67899;DHT22;54699;51.796;10.956;2023-03-14T05:03:12;17.30;59.00
67899;DHT22;54699;51.796;10.956;2023-03-14T05:05:41;17.30;59.00
67899;DHT22;54699;51.796;10.956;2023-03-14T05:08:08;17.30;59.00
67899;DHT22;54699;51.796;10.956;2023-03-14T05:10:35;17.30;58.80
67899;DHT22;54699;51.796;10.956;2023-03-14T05:13:02;17.30;58.80
67899;DHT22;54699;51.796;10.956;2023-03-14T05:15:29;17.30;58.90
67899;DHT22;54699;51.796;10.956;2023-03-14T05:17:56;17.30;58.90
67899;DHT22;54699;51.796;10.956;2023-03-14T05:20:24;17.30;58.90
67899;DHT22;54699;51.796;10.956;2023-03-14T05:22:51;17.30;58.90
67899;DHT22;54699;51.796;10.956;2023-03-14T05:25:18;17.30;58.70
67899;DHT22;54699;51.796;10.956;2023-03-14T05:27:44;17.30;58.80
67899;DHT22;54699;51.796;10.956;2023-03-14T05:30:12;17.30;58.90
67899;DHT22;54699;51.796;10.956;2023-03-14T05:32:39;17.30;58.90
67899;DHT22;54699;51.796;10.956;2023-03-14T05:35:06;17.30;58.90
67899;DHT22;54699;51.796;10.956;2023-03-14T05:37:34;17.30;59.00
67899;DHT22;54699;51.796;10.956;2023-03-14T05:40:01;17.30;59.10
67899;DHT22;54699;51.796;10.956;2023-03-14T05:42:29;17.20;59.00
67899;DHT22;54699;51.796;10.956;2023-03-14T05:44:56;17.30;59.10
67899;DHT22;54699;51.796;10.956;2023-03-14T05:47:23;17.30;59.00
67899;DHT22;54699;51.796;10.956;2023-03-14T05:50:12;17.30;59.00
67899;DHT22;54699;51.796;10.956;2023-03-14T05:52:46;17.30;59.00
67899;DHT22;54699;51.796;10.956;2023-03-14T05:55:16;17.30;58.90
67899;DHT22;54699;51.796;10.956;2023-03-14T05:57:52;17.20;59.10
67899;DHT22;54699;51.796;10.956;2023-03-14T06:00:24;17.30;58.90
67899;DHT22;54699;51.796;10.956;2023-03-14T06:02:53;17.20;58.70
67899;DHT22;54699;51.796;10.956;2023-03-14T06:05:21;17.30;58.80
67899;DHT22;54699;51.796;10.956;2023-03-14T06:07:49;17.40;59.00
67899;DHT22;54699;51.796;10.956;2023-03-14T06:10:16;17.40;58.90
67899;DHT22;54699;51.796;10.956;2023-03-14T06:12:44;17.30;57.70
67899;DHT22;54699;51.796;10.956;2023-03-14T06:15:11;17.30;57.90
67899;DHT22;54699;51.796;10.956;2023-03-14T06:17:38;17.30;57.90
67899;DHT22;54699;51.796;10.956;2023-03-14T06:20:06;17.40;59.10
67899;DHT22;54699;51.796;10.956;2023-03-14T06:22:34;17.40;58.80
67899;DHT22;54699;51.796;10.956;2023-03-14T06:25:03;17.40;58.70
67899;DHT22;54699;51.796;10.956;2023-03-14T06:27:30;17.40;58.80
67899;DHT22;54699;51.796;10.956;2023-03-14T06:29:57;17.40;58.80
67899;DHT22;54699;51.796;10.956;2023-03-14T06:32:24;17.40;58.70
67899;DHT22;54699;51.796;10.956;2023-03-14T06:34:51;17.40;58.60
67899;DHT22;54699;51.796;10.956;2023-03-14T06:37:19;17.30;58.10
67899;DHT22;54699;51.796;10.956;2023-03-14T06:39:46;17.40;58.80
67899;DHT22;54699;51.796;10.956;2023-03-14T06:42:14;17.40;58.40
67899;DHT22;54699;51.796;10.956;2023-03-14T06:44:42;17.40;58.80
67899;DHT22;54699;51.796;10.956;2023-03-14T06:47:09;17.30;58.20
67899;DHT22;54699;51.796;10.956;2023-03-14T06:49:36;17.40;59.00
67899;DHT22;54699;51.796;10.956;2023-03-14T06:52:03;17.40;58.80
67899;DHT22;54699;51.796;10.956;2023-03-14T06:54:31;17.30;58.60
67899;DHT22;54699;51.796;10.956;2023-03-14T06:57:02;17.30;58.10
67899;DHT22;54699;51.796;10.956;2023-03-14T06:59:38;17.30;58.10
67899;DHT22;54699;51.796;10.956;2023-03-14T07:02:07;17.20;56.90
67899;DHT22;54699;51.796;10.956;2023-03-14T07:04:40;17.20;57.50
67899;DHT22;54699;51.796;10.956;2023-03-14T07:07:09;17.20;57.10
67899;DHT22;54699;51.796;10.956;2023-03-14T07:09:36;17.30;57.50
67899;DHT22;54699;51.796;10.956;2023-03-14T07:12:04;17.30;58.20
67899;DHT22;54699;51.796;10.956;2023-03-14T07:14:34;17.30;58.40
67899;DHT22;54699;51.796;10.956;2023-03-14T07:17:08;17.30;58.40
67899;DHT22;54699;51.796;10.956;2023-03-14T07:19:41;17.40;58.40
67899;DHT22;54699;51.796;10.956;2023-03-14T07:22:10;17.40;58.50
67899;DHT22;54699;51.796;10.956;2023-03-14T07:24:37;17.40;58.40
67899;DHT22;54699;51.796;10.956;2023-03-14T07:27:05;17.40;58.20
67899;DHT22;54699;51.796;10.956;2023-03-14T07:29:34;17.40;58.20
67899;DHT22;54699;51.796;10.956;2023-03-14T07:32:02;17.40;58.00
67899;DHT22;54699;51.796;10.956;2023-03-14T07:34:29;17.40;57.90
67899;DHT22;54699;51.796;10.956;2023-03-14T07:36:56;17.40;57.80
67899;DHT22;54699;51.796;10.956;2023-03-14T07:39:26;17.40;57.90
67899;DHT22;54699;51.796;10.956;2023-03-14T07:41:54;17.40;57.80
67899;DHT22;54699;51.796;10.956;2023-03-14T07:44:22;17.40;57.60
67899;DHT22;54699;51.796;10.956;2023-03-14T07:46:50;17.40;57.80
67899;DHT22;54699;51.796;10.956;2023-03-14T07:49:17;17.40;58.10
67899;DHT22;54699;51.796;10.956;2023-03-14T07:51:47;17.40;57.90
67899;DHT22;54699;51.796;10.956;2023-03-14T07:54:17;17.40;57.80
67899;DHT22;54699;51.796;10.956;2023-03-14T07:56:45;17.40;57.80
67899;DHT22;54699;51.796;10.956;2023-03-14T07:59:13;17.40;57.30
67899;DHT22;54699;51.796;10.956;2023-03-14T08:01:40;17.40;56.10
67899;DHT22;54699;51.796;10.956;2023-03-14T08:04:09;17.40;58.00
67899;DHT22;54699;51.796;10.956;2023-03-14T08:06:37;17.40;58.00
67899;DHT22;54699;51.796;10.956;2023-03-14T08:09:04;17.40;58.10
67899;DHT22;54699;51.796;10.956;2023-03-14T08:11:31;17.40;58.10
67899;DHT22;54699;51.796;10.956;2023-03-14T08:13:58;17.50;58.00
67899;DHT22;54699;51.796;10.956;2023-03-14T08:16:25;17.50;58.00
67899;DHT22;54699;51.796;10.956;2023-03-14T08:18:52;17.50;58.20
67899;DHT22;54699;51.796;10.956;2023-03-14T08:21:20;17.50;58.00
67899;DHT22;54699;51.796;10.956;2023-03-14T08:23:47;17.50;58.10
67899;DHT22;54699;51.796;10.956;2023-03-14T08:26:14;17.50;58.20
67899;DHT22;54699;51.796;10.956;2023-03-14T08:28:44;17.50;57.60
67899;DHT22;54699;51.796;10.956;2023-03-14T08:31:11;17.50;57.30
67899;DHT22;54699;51.796;10.956;2023-03-14T08:33:41;17.60;57.30
67899;DHT22;54699;51.796;10.956;2023-03-14T08:46:48;17.90;57.00
67899;DHT22;54699;51.796;10.956;2023-03-14T08:49:29;18.00;56.60
67899;DHT22;54699;51.796;10.956;2023-03-14T08:52:08;18.10;56.80
67899;DHT22;54699;51.796;10.956;2023-03-14T08:55:08;18.20;56.70
67899;DHT22;54699;51.796;10.956;2023-03-14T08:57:54;18.30;54.90
67899;DHT22;54699;51.796;10.956;2023-03-14T09:00:32;18.40;56.90
67899;DHT22;54699;51.796;10.956;2023-03-14T09:03:41;18.50;56.70
67899;DHT22;54699;51.796;10.956;2023-03-14T09:06:09;18.40;55.00
67899;DHT22;54699;51.796;10.956;2023-03-14T09:08:37;18.40;55.70
67899;DHT22;54699;51.796;10.956;2023-03-14T09:11:06;18.40;55.50
67899;DHT22;54699;51.796;10.956;2023-03-14T09:13:34;18.30;55.70
67899;DHT22;54699;51.796;10.956;2023-03-14T09:16:02;18.30;55.40
67899;DHT22;54699;51.796;10.956;2023-03-14T09:18:29;18.30;54.70
67899;DHT22;54699;51.796;10.956;2023-03-14T09:20:57;18.20;54.90
67899;DHT22;54699;51.796;10.956;2023-03-14T09:23:24;18.20;54.20
67899;DHT22;54699;51.796;10.956;2023-03-14T09:25:53;18.20;53.50
67899;DHT22;54699;51.796;10.956;2023-03-14T09:28:24;18.20;53.70
67899;DHT22;54699;51.796;10.956;2023-03-14T09:30:52;18.30;54.60
67899;DHT22;54699;51.796;10.956;2023-03-14T09:33:21;18.20;53.10
67899;DHT22;54699;51.796;10.956;2023-03-14T09:35:48;18.30;52.70
67899;DHT22;54699;51.796;10.956;2023-03-14T09:38:15;18.20;53.00
67899;DHT22;54699;51.796;10.956;2023-03-14T09:40:43;18.30;54.10
67899;DHT22;54699;51.796;10.956;2023-03-14T09:43:10;18.30;53.70
67899;DHT22;54699;51.796;10.956;2023-03-14T09:45:40;18.30;54.60
67899;DHT22;54699;51.796;10.956;2023-03-14T09:48:21;18.30;53.70
67899;DHT22;54699;51.796;10.956;2023-03-14T09:50:51;18.30;53.90
67899;DHT22;54699;51.796;10.956;2023-03-14T09:53:21;18.30;54.50
67899;DHT22;54699;51.796;10.956;2023-03-14T09:55:52;18.40;52.90
67899;DHT22;54699;51.796;10.956;2023-03-14T09:58:22;18.30;52.50
67899;DHT22;54699;51.796;10.956;2023-03-14T10:00:51;18.30;52.80
67899;DHT22;54699;51.796;10.956;2023-03-14T10:03:24;18.30;54.00
67899;DHT22;54699;51.796;10.956;2023-03-14T10:05:53;18.30;53.10
67899;DHT22;54699;51.796;10.956;2023-03-14T10:08:22;18.30;54.00
67899;DHT22;54699;51.796;10.956;2023-03-14T10:10:50;18.30;54.40
67899;DHT22;54699;51.796;10.956;2023-03-14T10:13:19;18.30;52.80
67899;DHT22;54699;51.796;10.956;2023-03-14T10:15:51;18.30;53.40
67899;DHT22;54699;51.796;10.956;2023-03-14T10:18:19;18.30;52.10
67899;DHT22;54699;51.796;10.956;2023-03-14T10:21:00;18.30;51.90
67899;DHT22;54699;51.796;10.956;2023-03-14T10:23:31;18.30;52.00
67899;DHT22;54699;51.796;10.956;2023-03-14T10:26:07;18.30;52.00
67899;DHT22;54699;51.796;10.956;2023-03-14T10:28:38;18.30;51.90
67899;DHT22;54699;51.796;10.956;2023-03-14T10:31:06;18.30;51.30
67899;DHT22;54699;51.796;10.956;2023-03-14T10:33:35;18.30;51.40
67899;DHT22;54699;51.796;10.956;2023-03-14T10:36:14;18.30;53.70
67899;DHT22;54699;51.796;10.956;2023-03-14T10:39:14;18.30;53.90
67899;DHT22;54699;51.796;10.956;2023-03-14T10:42:18;18.30;53.50
67899;DHT22;54699;51.796;10.956;2023-03-14T10:44:51;18.30;54.10
67899;DHT22;54699;51.796;10.956;2023-03-14T10:47:26;18.40;51.60
67899;DHT22;54699;51.796;10.956;2023-03-14T10:50:22;18.50;51.40
67899;DHT22;54699;51.796;10.956;2023-03-14T10:52:56;18.60;51.50
67899;DHT22;54699;51.796;10.956;2023-03-14T10:55:41;18.60;52.70
67899;DHT22;54699;51.796;10.956;2023-03-14T10:58:17;18.80;53.20
67899;DHT22;54699;51.796;10.956;2023-03-14T11:01:05;18.80;54.40
67899;DHT22;54699;51.796;10.956;2023-03-14T11:04:30;18.90;55.40
67899;DHT22;54699;51.796;10.956;2023-03-14T11:07:16;19.00;54.70
67899;DHT22;54699;51.796;10.956;2023-03-14T11:09:53;19.10;54.10
67899;DHT22;54699;51.796;10.956;2023-03-14T11:12:30;19.10;54.00
67899;DHT22;54699;51.796;10.956;2023-03-14T11:15:11;19.10;54.00
67899;DHT22;54699;51.796;10.956;2023-03-14T11:17:46;19.00;53.30
67899;DHT22;54699;51.796;10.956;2023-03-14T11:20:26;19.00;53.30
67899;DHT22;54699;51.796;10.956;2023-03-14T11:23:01;19.10;53.80
67899;DHT22;54699;51.796;10.956;2023-03-14T11:25:40;19.00;53.40
67899;DHT22;54699;51.796;10.956;2023-03-14T11:28:17;19.00;53.50
67899;DHT22;54699;51.796;10.956;2023-03-14T11:30:50;19.00;53.70
67899;DHT22;54699;51.796;10.956;2023-03-14T11:33:22;19.00;54.10
67899;DHT22;54699;51.796;10.956;2023-03-14T11:35:55;19.10;54.00
67899;DHT22;54699;51.796;10.956;2023-03-14T11:38:29;19.00;54.20
67899;DHT22;54699;51.796;10.956;2023-03-14T11:41:01;19.10;54.40
67899;DHT22;54699;51.796;10.956;2023-03-14T11:43:29;19.00;54.10
67899;DHT22;54699;51.796;10.956;2023-03-14T11:46:04;19.00;54.60
67899;DHT22;54699;51.796;10.956;2023-03-14T11:48:40;19.10;55.70
67899;DHT22;54699;51.796;10.956;2023-03-14T11:51:17;19.10;55.20
67899;DHT22;54699;51.796;10.956;2023-03-14T11:53:59;19.10;54.10
67899;DHT22;54699;51.796;10.956;2023-03-14T11:56:42;19.10;54.40
67899;DHT22;54699;51.796;10.956;2023-03-14T11:59:20;19.10;54.50
67899;DHT22;54699;51.796;10.956;2023-03-14T12:02:03;19.10;55.10
67899;DHT22;54699;51.796;10.956;2023-03-14T12:04:43;19.20;55.00
67899;DHT22;54699;51.796;10.956;2023-03-14T12:07:23;19.30;55.20
67899;DHT22;54699;51.796;10.956;2023-03-14T12:09:56;19.30;55.00
67899;DHT22;54699;51.796;10.956;2023-03-14T12:12:35;19.40;55.60
67899;DHT22;54699;51.796;10.956;2023-03-14T12:15:03;19.40;55.50
67899;DHT22;54699;51.796;10.956;2023-03-14T12:17:35;19.40;55.40
67899;DHT22;54699;51.796;10.956;2023-03-14T12:20:10;19.40;55.70
67899;DHT22;54699;51.796;10.956;2023-03-14T12:22:45;19.40;55.50
67899;DHT22;54699;51.796;10.956;2023-03-14T12:25:15;19.50;55.70
67899;DHT22;54699;51.796;10.956;2023-03-14T12:27:49;19.50;55.50
67899;DHT22;54699;51.796;10.956;2023-03-14T12:30:32;19.50;53.80
67899;DHT22;54699;51.796;10.956;2023-03-14T12:33:20;19.40;54.20
67899;DHT22;54699;51.796;10.956;2023-03-14T12:39:01;19.40;55.30
67899;DHT22;54699;51.796;10.956;2023-03-14T12:41:40;19.40;55.90
67899;DHT22;54699;51.796;10.956;2023-03-14T12:50:16;19.40;55.50
67899;DHT22;54699;51.796;10.956;2023-03-14T12:52:50;19.40;54.40
67899;DHT22;54699;51.796;10.956;2023-03-14T12:55:36;19.40;53.90
67899;DHT22;54699;51.796;10.956;2023-03-14T12:58:11;19.30;54.30
67899;DHT22;54699;51.796;10.956;2023-03-14T13:00:47;19.30;54.80
67899;DHT22;54699;51.796;10.956;2023-03-14T13:03:22;19.30;55.00
67899;DHT22;54699;51.796;10.956;2023-03-14T13:05:53;19.30;54.40
67899;DHT22;54699;51.796;10.956;2023-03-14T13:08:32;19.20;53.80
67899;DHT22;54699;51.796;10.956;2023-03-14T13:11:01;19.20;53.60
67899;DHT22;54699;51.796;10.956;2023-03-14T13:13:31;19.20;53.80
67899;DHT22;54699;51.796;10.956;2023-03-14T13:16:04;19.20;54.00
67899;DHT22;54699;51.796;10.956;2023-03-14T13:18:34;19.20;53.50
67899;DHT22;54699;51.796;10.956;2023-03-14T13:21:03;19.20;53.50
67899;DHT22;54699;51.796;10.956;2023-03-14T13:23:34;19.10;52.80
67899;DHT22;54699;51.796;10.956;2023-03-14T13:26:05;19.10;53.70
67899;DHT22;54699;51.796;10.956;2023-03-14T13:28:36;19.10;52.50
67899;DHT22;54699;51.796;10.956;2023-03-14T13:31:05;19.10;53.00
67899;DHT22;54699;51.796;10.956;2023-03-14T13:33:32;19.00;53.00
67899;DHT22;54699;51.796;10.956;2023-03-14T13:36:01;19.10;53.80
67899;DHT22;54699;51.796;10.956;2023-03-14T13:38:31;19.00;51.70
67899;DHT22;54699;51.796;10.956;2023-03-14T13:41:03;19.00;52.10
67899;DHT22;54699;51.796;10.956;2023-03-14T13:43:32;19.00;51.90
67899;DHT22;54699;51.796;10.956;2023-03-14T13:46:03;19.00;53.50
67899;DHT22;54699;51.796;10.956;2023-03-14T13:48:33;19.00;52.10
67899;DHT22;54699;51.796;10.956;2023-03-14T13:51:05;19.00;54.10
67899;DHT22;54699;51.796;10.956;2023-03-14T13:53:41;18.90;51.40
67899;DHT22;54699;51.796;10.956;2023-03-14T13:56:09;19.00;52.70
67899;DHT22;54699;51.796;10.956;2023-03-14T13:58:38;18.90;51.90
67899;DHT22;54699;51.796;10.956;2023-03-14T14:01:10;18.90;52.60
67899;DHT22;54699;51.796;10.956;2023-03-14T14:03:41;18.90;53.40
67899;DHT22;54699;51.796;10.956;2023-03-14T14:06:10;18.90;51.80
67899;DHT22;54699;51.796;10.956;2023-03-14T14:08:48;18.90;52.10
67899;DHT22;54699;51.796;10.956;2023-03-14T14:11:18;18.90;53.80
67899;DHT22;54699;51.796;10.956;2023-03-14T14:13:53;18.90;51.60
67899;DHT22;54699;51.796;10.956;2023-03-14T14:16:25;18.80;52.10
67899;DHT22;54699;51.796;10.956;2023-03-14T14:18:55;18.80;54.30
67899;DHT22;54699;51.796;10.956;2023-03-14T14:21:23;18.80;53.60
67899;DHT22;54699;51.796;10.956;2023-03-14T14:23:51;18.80;53.30
67899;DHT22;54699;51.796;10.956;2023-03-14T14:26:19;18.80;54.50
67899;DHT22;54699;51.796;10.956;2023-03-14T14:28:47;18.80;54.20
67899;DHT22;54699;51.796;10.956;2023-03-14T14:31:30;18.80;53.50
67899;DHT22;54699;51.796;10.956;2023-03-14T14:33:58;18.70;52.30
67899;DHT22;54699;51.796;10.956;2023-03-14T14:36:27;18.80;55.60
67899;DHT22;54699;51.796;10.956;2023-03-14T14:38:59;18.80;53.80
67899;DHT22;54699;51.796;10.956;2023-03-14T14:41:31;18.80;53.70
67899;DHT22;54699;51.796;10.956;2023-03-14T14:44:00;18.80;53.50
67899;DHT22;54699;51.796;10.956;2023-03-14T14:46:32;18.80;53.50
67899;DHT22;54699;51.796;10.956;2023-03-14T14:49:04;18.80;52.00
67899;DHT22;54699;51.796;10.956;2023-03-14T14:51:38;18.80;52.20
67899;DHT22;54699;51.796;10.956;2023-03-14T14:54:12;18.80;51.60
67899;DHT22;54699;51.796;10.956;2023-03-14T14:56:45;18.80;51.70
67899;DHT22;54699;51.796;10.956;2023-03-14T14:59:22;18.90;54.20
67899;DHT22;54699;51.796;10.956;2023-03-14T15:01:56;18.80;52.90
67899;DHT22;54699;51.796;10.956;2023-03-14T15:04:24;18.80;53.90
67899;DHT22;54699;51.796;10.956;2023-03-14T15:06:52;18.90;54.90
67899;DHT22;54699;51.796;10.956;2023-03-14T15:09:19;18.90;55.00
67899;DHT22;54699;51.796;10.956;2023-03-14T15:11:47;18.90;54.90
67899;DHT22;54699;51.796;10.956;2023-03-14T15:14:14;18.80;54.00
67899;DHT22;54699;51.796;10.956;2023-03-14T15:16:41;18.80;55.10
67899;DHT22;54699;51.796;10.956;2023-03-14T15:19:12;18.80;51.90
67899;DHT22;54699;51.796;10.956;2023-03-14T15:21:43;18.80;54.60
67899;DHT22;54699;51.796;10.956;2023-03-14T15:24:10;18.80;54.30
67899;DHT22;54699;51.796;10.956;2023-03-14T15:26:37;18.80;53.90
67899;DHT22;54699;51.796;10.956;2023-03-14T15:29:04;18.80;54.70
67899;DHT22;54699;51.796;10.956;2023-03-14T15:31:33;18.80;54.70
67899;DHT22;54699;51.796;10.956;2023-03-14T15:34:02;18.80;55.10
67899;DHT22;54699;51.796;10.956;2023-03-14T15:36:31;18.80;55.20
67899;DHT22;54699;51.796;10.956;2023-03-14T15:39:00;18.80;55.20
67899;DHT22;54699;51.796;10.956;2023-03-14T15:41:29;18.80;55.10
67899;DHT22;54699;51.796;10.956;2023-03-14T15:43:56;18.80;54.10
67899;DHT22;54699;51.796;10.956;2023-03-14T15:46:23;18.80;53.30
67899;DHT22;54699;51.796;10.956;2023-03-14T15:48:56;18.80;55.40
67899;DHT22;54699;51.796;10.956;2023-03-14T15:51:23;18.80;53.00
67899;DHT22;54699;51.796;10.956;2023-03-14T15:53:52;18.80;55.40
67899;DHT22;54699;51.796;10.956;2023-03-14T15:56:19;18.80;55.30
67899;DHT22;54699;51.796;10.956;2023-03-14T15:58:49;18.70;56.10